sensor_id;sensor_type;location;lat;lon;timestamp;P1;durP1;ratioP1;P2;durP2;ratioP2
10341;SDS011;5216;54.602;18.356;2023-02-28T00:01:02;14.17;;;11.03;;
10341;SDS011;5216;54.602;18.356;2023-02-28T00:03:29;14.07;;;11.37;;
10341;SDS011;5216;54.602;18.356;2023-02-28T00:05:55;16.80;;;12.03;;
10341;SDS011;5216;54.602;18.356;2023-02-28T00:08:22;16.70;;;11.90;;
10341;SDS011;5216;54.602;18.356;2023-02-28T00:10:48;11.17;;;8.53;;
10341;SDS011;5216;54.602;18.356;2023-02-28T00:13:15;11.23;;;8.87;;
10341;SDS011;5216;54.602;18.356;2023-02-28T00:15:42;10.83;;;7.57;;
10341;SDS011;5216;54.602;18.356;2023-02-28T00:18:10;10.53;;;7.37;;
10341;SDS011;5216;54.602;18.356;2023-02-28T00:20:38;10.30;;;6.93;;
10341;SDS011;5216;54.602;18.356;2023-02-28T00:33:27;13.70;;;8.50;;
10341;SDS011;5216;54.602;18.356;2023-02-28T00:36:00;13.10;;;9.93;;
10341;SDS011;5216;54.602;18.356;2023-02-28T00:38:27;14.73;;;10.80;;
10341;SDS011;5216;54.602;18.356;2023-02-28T00:40:54;13.90;;;10.73;;
10341;SDS011;5216;54.602;18.356;2023-02-28T00:47:08;15.63;;;11.00;;
10341;SDS011;5216;54.602;18.356;2023-02-28T00:49:34;15.43;;;11.63;;
10341;SDS011;5216;54.602;18.356;2023-02-28T00:52:01;14.17;;;10.90;;
10341;SDS011;5216;54.602;18.356;2023-02-28T00:54:27;13.20;;;10.07;;
10341;SDS011;5216;54.602;18.356;2023-02-28T00:56:54;15.97;;;11.03;;
10341;SDS011;5216;54.602;18.356;2023-02-28T01:03:06;13.93;;;10.33;;
10341;SDS011;5216;54.602;18.356;2023-02-28T01:05:33;11.17;;;8.13;;
10341;SDS011;5216;54.602;18.356;2023-02-28T01:08:00;10.57;;;8.40;;
10341;SDS011;5216;54.602;18.356;2023-02-28T01:10:26;13.17;;;10.03;;
10341;SDS011;5216;54.602;18.356;2023-02-28T01:12:53;13.80;;;9.60;;
10341;SDS011;5216;54.602;18.356;2023-02-28T01:15:20;12.40;;;9.20;;
10341;SDS011;5216;54.602;18.356;2023-02-28T01:17:46;11.23;;;9.50;;
10341;SDS011;5216;54.602;18.356;2023-02-28T01:20:13;13.73;;;10.10;;
10341;SDS011;5216;54.602;18.356;2023-02-28T01:22:40;14.60;;;11.03;;
10341;SDS011;5216;54.602;18.356;2023-02-28T01:25:06;16.47;;;11.63;;
10341;SDS011;5216;54.602;18.356;2023-02-28T01:27:33;11.53;;;9.40;;
10341;SDS011;5216;54.602;18.356;2023-02-28T01:30:00;15.00;;;10.30;;
10341;SDS011;5216;54.602;18.356;2023-02-28T01:32:26;15.63;;;11.67;;
10341;SDS011;5216;54.602;18.356;2023-02-28T01:34:53;17.20;;;12.33;;
10341;SDS011;5216;54.602;18.356;2023-02-28T01:37:19;16.93;;;11.63;;
10341;SDS011;5216;54.602;18.356;2023-02-28T01:39:46;18.73;;;12.90;;
10341;SDS011;5216;54.602;18.356;2023-02-28T01:42:13;16.80;;;12.40;;
10341;SDS011;5216;54.602;18.356;2023-02-28T01:47:21;18.77;;;11.67;;
10341;SDS011;5216;54.602;18.356;2023-02-28T01:49:48;15.93;;;11.27;;
10341;SDS011;5216;54.602;18.356;2023-02-28T01:52:16;15.73;;;11.97;;
10341;SDS011;5216;54.602;18.356;2023-02-28T01:54:48;14.53;;;10.87;;
10341;SDS011;5216;54.602;18.356;2023-02-28T01:57:17;12.93;;;10.00;;
10341;SDS011;5216;54.602;18.356;2023-02-28T01:59:52;15.57;;;11.07;;
10341;SDS011;5216;54.602;18.356;2023-02-28T02:02:21;14.47;;;9.57;;
10341;SDS011;5216;54.602;18.356;2023-02-28T02:04:55;12.00;;;9.47;;
10341;SDS011;5216;54.602;18.356;2023-02-28T02:07:23;13.43;;;9.23;;
10341;SDS011;5216;54.602;18.356;2023-02-28T02:09:50;12.33;;;9.37;;
10341;SDS011;5216;54.602;18.356;2023-02-28T02:12:27;12.27;;;9.17;;
10341;SDS011;5216;54.602;18.356;2023-02-28T02:17:46;12.10;;;9.13;;
10341;SDS011;5216;54.602;18.356;2023-02-28T02:38:55;10.27;;;7.97;;
10341;SDS011;5216;54.602;18.356;2023-02-28T02:44:04;9.07;;;6.57;;
10341;SDS011;5216;54.602;18.356;2023-02-28T02:46:33;10.33;;;7.70;;
10341;SDS011;5216;54.602;18.356;2023-02-28T02:49:03;9.57;;;7.47;;
10341;SDS011;5216;54.602;18.356;2023-02-28T02:51:31;14.60;;;8.97;;
10341;SDS011;5216;54.602;18.356;2023-02-28T02:54:21;13.70;;;8.83;;
10341;SDS011;5216;54.602;18.356;2023-02-28T02:56:46;12.03;;;8.23;;
10341;SDS011;5216;54.602;18.356;2023-02-28T02:59:15;11.63;;;8.80;;
10341;SDS011;5216;54.602;18.356;2023-02-28T03:01:49;12.23;;;9.17;;
10341;SDS011;5216;54.602;18.356;2023-02-28T03:04:17;11.87;;;8.53;;
10341;SDS011;5216;54.602;18.356;2023-02-28T03:06:44;10.93;;;8.33;;
10341;SDS011;5216;54.602;18.356;2023-02-28T03:09:11;12.63;;;8.90;;
10341;SDS011;5216;54.602;18.356;2023-02-28T03:11:38;12.70;;;8.93;;
10341;SDS011;5216;54.602;18.356;2023-02-28T03:16:43;13.50;;;9.43;;
10341;SDS011;5216;54.602;18.356;2023-02-28T03:19:31;13.10;;;9.90;;
10341;SDS011;5216;54.602;18.356;2023-02-28T03:27:10;10.70;;;7.40;;
10341;SDS011;5216;54.602;18.356;2023-02-28T03:29:39;10.33;;;7.37;;
10341;SDS011;5216;54.602;18.356;2023-02-28T03:34:52;11.23;;;7.23;;
10341;SDS011;5216;54.602;18.356;2023-02-28T03:37:23;9.07;;;5.90;;
10341;SDS011;5216;54.602;18.356;2023-02-28T03:39:53;8.10;;;5.87;;
10341;SDS011;5216;54.602;18.356;2023-02-28T03:42:22;9.50;;;6.13;;
10341;SDS011;5216;54.602;18.356;2023-02-28T03:45:08;8.70;;;5.97;;
10341;SDS011;5216;54.602;18.356;2023-02-28T03:52:31;8.73;;;6.80;;
10341;SDS011;5216;54.602;18.356;2023-02-28T03:55:00;9.17;;;6.90;;
10341;SDS011;5216;54.602;18.356;2023-02-28T04:00:18;9.03;;;6.23;;
10341;SDS011;5216;54.602;18.356;2023-02-28T04:02:45;9.90;;;7.20;;
10341;SDS011;5216;54.602;18.356;2023-02-28T04:05:12;7.90;;;6.50;;
10341;SDS011;5216;54.602;18.356;2023-02-28T04:07:47;7.93;;;6.53;;
10341;SDS011;5216;54.602;18.356;2023-02-28T04:10:14;8.77;;;6.50;;
10341;SDS011;5216;54.602;18.356;2023-02-28T04:12:41;10.17;;;7.47;;
10341;SDS011;5216;54.602;18.356;2023-02-28T04:15:08;9.40;;;6.90;;
10341;SDS011;5216;54.602;18.356;2023-02-28T04:17:36;11.13;;;6.67;;
10341;SDS011;5216;54.602;18.356;2023-02-28T04:20:03;9.40;;;6.73;;
10341;SDS011;5216;54.602;18.356;2023-02-28T04:33:37;8.27;;;6.63;;
10341;SDS011;5216;54.602;18.356;2023-02-28T04:36:04;8.80;;;6.70;;
10341;SDS011;5216;54.602;18.356;2023-02-28T04:38:35;6.90;;;6.03;;
10341;SDS011;5216;54.602;18.356;2023-02-28T04:41:02;8.20;;;6.07;;
10341;SDS011;5216;54.602;18.356;2023-02-28T04:43:29;8.73;;;6.27;;
10341;SDS011;5216;54.602;18.356;2023-02-28T04:45:56;9.07;;;7.20;;
10341;SDS011;5216;54.602;18.356;2023-02-28T04:48:23;8.70;;;7.17;;
10341;SDS011;5216;54.602;18.356;2023-02-28T04:50:51;9.10;;;7.20;;
10341;SDS011;5216;54.602;18.356;2023-02-28T04:53:18;7.60;;;5.97;;
10341;SDS011;5216;54.602;18.356;2023-02-28T04:55:45;7.77;;;6.10;;
10341;SDS011;5216;54.602;18.356;2023-02-28T04:58:15;7.43;;;5.57;;
10341;SDS011;5216;54.602;18.356;2023-02-28T05:00:42;5.93;;;4.90;;
10341;SDS011;5216;54.602;18.356;2023-02-28T05:03:08;8.20;;;5.63;;
10341;SDS011;5216;54.602;18.356;2023-02-28T05:05:36;8.53;;;6.50;;
10341;SDS011;5216;54.602;18.356;2023-02-28T05:08:02;8.77;;;6.60;;
10341;SDS011;5216;54.602;18.356;2023-02-28T05:10:29;11.20;;;8.20;;
10341;SDS011;5216;54.602;18.356;2023-02-28T05:13:14;13.43;;;9.90;;
10341;SDS011;5216;54.602;18.356;2023-02-28T05:15:40;13.33;;;10.03;;
10341;SDS011;5216;54.602;18.356;2023-02-28T05:18:08;13.17;;;10.37;;
10341;SDS011;5216;54.602;18.356;2023-02-28T05:20:34;15.37;;;11.93;;
10341;SDS011;5216;54.602;18.356;2023-02-28T05:23:01;15.77;;;12.23;;
10341;SDS011;5216;54.602;18.356;2023-02-28T05:25:27;15.70;;;12.50;;
10341;SDS011;5216;54.602;18.356;2023-02-28T05:27:54;15.37;;;12.07;;
10341;SDS011;5216;54.602;18.356;2023-02-28T05:30:21;14.90;;;11.90;;
10341;SDS011;5216;54.602;18.356;2023-02-28T05:32:49;15.23;;;12.37;;
10341;SDS011;5216;54.602;18.356;2023-02-28T05:35:16;16.73;;;13.50;;
10341;SDS011;5216;54.602;18.356;2023-02-28T05:37:43;16.67;;;13.27;;
10341;SDS011;5216;54.602;18.356;2023-02-28T05:40:09;16.50;;;13.17;;
10341;SDS011;5216;54.602;18.356;2023-02-28T05:42:37;16.63;;;12.67;;
10341;SDS011;5216;54.602;18.356;2023-02-28T05:45:04;14.40;;;10.80;;
10341;SDS011;5216;54.602;18.356;2023-02-28T05:47:30;13.50;;;9.40;;
10341;SDS011;5216;54.602;18.356;2023-02-28T05:56:39;8.43;;;6.80;;
10341;SDS011;5216;54.602;18.356;2023-02-28T05:59:06;10.57;;;7.50;;
10341;SDS011;5216;54.602;18.356;2023-02-28T06:01:37;11.40;;;7.90;;
10341;SDS011;5216;54.602;18.356;2023-02-28T06:04:05;11.37;;;7.83;;
10341;SDS011;5216;54.602;18.356;2023-02-28T06:06:33;14.73;;;8.27;;
10341;SDS011;5216;54.602;18.356;2023-02-28T06:09:03;13.60;;;9.47;;
10341;SDS011;5216;54.602;18.356;2023-02-28T06:11:30;12.93;;;9.40;;
10341;SDS011;5216;54.602;18.356;2023-02-28T06:13:58;11.10;;;9.33;;
10341;SDS011;5216;54.602;18.356;2023-02-28T06:16:29;14.03;;;10.30;;
10341;SDS011;5216;54.602;18.356;2023-02-28T06:19:05;13.07;;;11.17;;
10341;SDS011;5216;54.602;18.356;2023-02-28T06:21:32;12.23;;;10.27;;
10341;SDS011;5216;54.602;18.356;2023-02-28T06:23:58;10.90;;;8.33;;
10341;SDS011;5216;54.602;18.356;2023-02-28T06:26:25;9.50;;;7.73;;
10341;SDS011;5216;54.602;18.356;2023-02-28T06:28:52;12.13;;;8.60;;
10341;SDS011;5216;54.602;18.356;2023-02-28T06:31:18;11.23;;;8.10;;
10341;SDS011;5216;54.602;18.356;2023-02-28T06:33:45;12.53;;;8.90;;
10341;SDS011;5216;54.602;18.356;2023-02-28T06:36:12;12.43;;;8.27;;
10341;SDS011;5216;54.602;18.356;2023-02-28T06:38:39;10.33;;;7.50;;
10341;SDS011;5216;54.602;18.356;2023-02-28T06:41:07;9.30;;;7.07;;
10341;SDS011;5216;54.602;18.356;2023-02-28T06:43:35;7.37;;;6.03;;
10341;SDS011;5216;54.602;18.356;2023-02-28T06:46:03;8.47;;;6.47;;
10341;SDS011;5216;54.602;18.356;2023-02-28T06:48:30;10.03;;;7.93;;
10341;SDS011;5216;54.602;18.356;2023-02-28T06:51:03;10.97;;;7.07;;
10341;SDS011;5216;54.602;18.356;2023-02-28T06:53:30;10.40;;;7.00;;
10341;SDS011;5216;54.602;18.356;2023-02-28T06:55:57;8.53;;;6.30;;
10341;SDS011;5216;54.602;18.356;2023-02-28T06:58:23;9.13;;;6.47;;
10341;SDS011;5216;54.602;18.356;2023-02-28T07:00:51;9.57;;;6.70;;
10341;SDS011;5216;54.602;18.356;2023-02-28T07:03:32;11.97;;;8.47;;
10341;SDS011;5216;54.602;18.356;2023-02-28T07:06:12;12.70;;;9.17;;
10341;SDS011;5216;54.602;18.356;2023-02-28T07:08:39;13.57;;;9.33;;
10341;SDS011;5216;54.602;18.356;2023-02-28T07:11:07;13.63;;;10.33;;
10341;SDS011;5216;54.602;18.356;2023-02-28T07:13:34;13.37;;;9.73;;
10341;SDS011;5216;54.602;18.356;2023-02-28T07:16:02;17.67;;;12.93;;
10341;SDS011;5216;54.602;18.356;2023-02-28T07:18:29;17.77;;;13.13;;
10341;SDS011;5216;54.602;18.356;2023-02-28T07:20:55;18.37;;;13.60;;
10341;SDS011;5216;54.602;18.356;2023-02-28T07:23:22;19.87;;;14.20;;
10341;SDS011;5216;54.602;18.356;2023-02-28T07:25:49;15.93;;;13.07;;
10341;SDS011;5216;54.602;18.356;2023-02-28T07:28:19;19.73;;;12.70;;
10341;SDS011;5216;54.602;18.356;2023-02-28T07:30:45;18.47;;;13.60;;
10341;SDS011;5216;54.602;18.356;2023-02-28T07:33:12;14.47;;;11.70;;
10341;SDS011;5216;54.602;18.356;2023-02-28T07:35:39;11.90;;;9.37;;
10341;SDS011;5216;54.602;18.356;2023-02-28T07:38:05;7.93;;;6.80;;
10341;SDS011;5216;54.602;18.356;2023-02-28T07:40:34;4.80;;;3.53;;
10341;SDS011;5216;54.602;18.356;2023-02-28T07:43:01;8.23;;;6.87;;
10341;SDS011;5216;54.602;18.356;2023-02-28T07:45:33;9.03;;;7.60;;
10341;SDS011;5216;54.602;18.356;2023-02-28T07:48:00;12.60;;;8.60;;
10341;SDS011;5216;54.602;18.356;2023-02-28T07:50:27;16.70;;;12.43;;
10341;SDS011;5216;54.602;18.356;2023-02-28T07:53:00;18.43;;;13.93;;
10341;SDS011;5216;54.602;18.356;2023-02-28T07:55:35;19.20;;;13.60;;
10341;SDS011;5216;54.602;18.356;2023-02-28T07:58:02;17.23;;;13.20;;
10341;SDS011;5216;54.602;18.356;2023-02-28T08:00:28;20.80;;;16.40;;
10341;SDS011;5216;54.602;18.356;2023-02-28T08:02:57;16.93;;;12.10;;
10341;SDS011;5216;54.602;18.356;2023-02-28T08:05:24;11.40;;;9.50;;
10341;SDS011;5216;54.602;18.356;2023-02-28T08:07:51;12.80;;;8.63;;
10341;SDS011;5216;54.602;18.356;2023-02-28T08:10:22;8.97;;;6.90;;
10341;SDS011;5216;54.602;18.356;2023-02-28T08:12:50;8.30;;;6.07;;
10341;SDS011;5216;54.602;18.356;2023-02-28T08:15:16;10.97;;;8.40;;
10341;SDS011;5216;54.602;18.356;2023-02-28T08:17:43;7.67;;;6.17;;
10341;SDS011;5216;54.602;18.356;2023-02-28T08:20:10;8.17;;;6.77;;
10341;SDS011;5216;54.602;18.356;2023-02-28T08:22:52;9.73;;;7.23;;
10341;SDS011;5216;54.602;18.356;2023-02-28T08:25:31;11.70;;;8.60;;
10341;SDS011;5216;54.602;18.356;2023-02-28T08:27:58;9.60;;;7.83;;
10341;SDS011;5216;54.602;18.356;2023-02-28T08:30:25;11.37;;;8.60;;
10341;SDS011;5216;54.602;18.356;2023-02-28T08:32:51;9.53;;;7.33;;
10341;SDS011;5216;54.602;18.356;2023-02-28T08:35:18;10.27;;;7.20;;
10341;SDS011;5216;54.602;18.356;2023-02-28T08:37:47;10.50;;;8.10;;
10341;SDS011;5216;54.602;18.356;2023-02-28T08:40:13;11.87;;;9.03;;
10341;SDS011;5216;54.602;18.356;2023-02-28T08:42:45;10.53;;;7.03;;
10341;SDS011;5216;54.602;18.356;2023-02-28T08:45:12;13.57;;;9.53;;
10341;SDS011;5216;54.602;18.356;2023-02-28T08:47:39;12.77;;;9.57;;
10341;SDS011;5216;54.602;18.356;2023-02-28T08:50:05;10.03;;;6.90;;
10341;SDS011;5216;54.602;18.356;2023-02-28T08:52:32;8.60;;;5.40;;
10341;SDS011;5216;54.602;18.356;2023-02-28T08:54:59;6.07;;;3.90;;
10341;SDS011;5216;54.602;18.356;2023-02-28T08:57:26;5.83;;;4.80;;
10341;SDS011;5216;54.602;18.356;2023-02-28T08:59:53;6.27;;;4.27;;
10341;SDS011;5216;54.602;18.356;2023-02-28T09:02:19;4.73;;;3.10;;
10341;SDS011;5216;54.602;18.356;2023-02-28T09:04:46;4.03;;;3.00;;
10341;SDS011;5216;54.602;18.356;2023-02-28T09:07:13;5.63;;;3.30;;
10341;SDS011;5216;54.602;18.356;2023-02-28T09:09:40;4.60;;;2.90;;
10341;SDS011;5216;54.602;18.356;2023-02-28T09:12:26;3.90;;;2.93;;
10341;SDS011;5216;54.602;18.356;2023-02-28T09:14:53;7.20;;;2.80;;
10341;SDS011;5216;54.602;18.356;2023-02-28T09:17:20;4.30;;;3.10;;
10341;SDS011;5216;54.602;18.356;2023-02-28T09:19:47;3.30;;;2.40;;
10341;SDS011;5216;54.602;18.356;2023-02-28T09:22:14;4.83;;;3.20;;
10341;SDS011;5216;54.602;18.356;2023-02-28T09:24:43;3.80;;;2.70;;
10341;SDS011;5216;54.602;18.356;2023-02-28T09:27:11;3.50;;;2.43;;
10341;SDS011;5216;54.602;18.356;2023-02-28T09:29:37;3.53;;;2.67;;
10341;SDS011;5216;54.602;18.356;2023-02-28T09:32:04;2.90;;;2.43;;
10341;SDS011;5216;54.602;18.356;2023-02-28T09:34:32;3.17;;;2.60;;
10341;SDS011;5216;54.602;18.356;2023-02-28T09:36:58;3.50;;;2.50;;
10341;SDS011;5216;54.602;18.356;2023-02-28T09:39:25;2.93;;;2.40;;
10341;SDS011;5216;54.602;18.356;2023-02-28T09:41:53;5.00;;;2.50;;
10341;SDS011;5216;54.602;18.356;2023-02-28T09:46:57;2.70;;;2.00;;
10341;SDS011;5216;54.602;18.356;2023-02-28T09:49:28;6.27;;;2.87;;
10341;SDS011;5216;54.602;18.356;2023-02-28T09:54:31;2.63;;;1.93;;
10341;SDS011;5216;54.602;18.356;2023-02-28T10:04:58;3.43;;;1.63;;
10341;SDS011;5216;54.602;18.356;2023-02-28T10:09:56;2.03;;;1.70;;
10341;SDS011;5216;54.602;18.356;2023-02-28T10:12:24;3.00;;;1.73;;
10341;SDS011;5216;54.602;18.356;2023-02-28T10:14:52;2.17;;;1.60;;
10341;SDS011;5216;54.602;18.356;2023-02-28T10:17:26;2.30;;;1.70;;
10341;SDS011;5216;54.602;18.356;2023-02-28T10:22:33;3.47;;;2.10;;
10341;SDS011;5216;54.602;18.356;2023-02-28T10:25:00;3.83;;;2.80;;
10341;SDS011;5216;54.602;18.356;2023-02-28T10:27:32;3.70;;;2.83;;
10341;SDS011;5216;54.602;18.356;2023-02-28T10:29:59;3.90;;;2.60;;
10341;SDS011;5216;54.602;18.356;2023-02-28T10:32:27;6.33;;;3.27;;
10341;SDS011;5216;54.602;18.356;2023-02-28T10:35:00;3.57;;;2.73;;
10341;SDS011;5216;54.602;18.356;2023-02-28T10:37:30;3.30;;;2.67;;
10341;SDS011;5216;54.602;18.356;2023-02-28T10:39:58;4.30;;;2.73;;
10341;SDS011;5216;54.602;18.356;2023-02-28T10:42:28;3.07;;;2.20;;
10341;SDS011;5216;54.602;18.356;2023-02-28T10:47:34;3.87;;;2.27;;
10341;SDS011;5216;54.602;18.356;2023-02-28T10:50:01;3.20;;;2.40;;
10341;SDS011;5216;54.602;18.356;2023-02-28T10:52:39;4.00;;;2.50;;
10341;SDS011;5216;54.602;18.356;2023-02-28T10:55:15;6.40;;;2.70;;
10341;SDS011;5216;54.602;18.356;2023-02-28T10:57:42;3.23;;;2.30;;
10341;SDS011;5216;54.602;18.356;2023-02-28T11:00:16;4.50;;;2.10;;
10341;SDS011;5216;54.602;18.356;2023-02-28T11:02:43;5.47;;;2.70;;
10341;SDS011;5216;54.602;18.356;2023-02-28T11:07:53;3.27;;;2.57;;
10341;SDS011;5216;54.602;18.356;2023-02-28T11:10:20;5.03;;;2.80;;
10341;SDS011;5216;54.602;18.356;2023-02-28T11:12:56;3.40;;;2.80;;
10341;SDS011;5216;54.602;18.356;2023-02-28T11:15:27;3.80;;;3.00;;
10341;SDS011;5216;54.602;18.356;2023-02-28T11:18:01;5.23;;;2.80;;
10341;SDS011;5216;54.602;18.356;2023-02-28T11:20:29;6.90;;;3.40;;
10341;SDS011;5216;54.602;18.356;2023-02-28T11:22:57;3.97;;;2.90;;
10341;SDS011;5216;54.602;18.356;2023-02-28T11:25:25;4.80;;;3.63;;
10341;SDS011;5216;54.602;18.356;2023-02-28T11:27:59;4.10;;;3.07;;
10341;SDS011;5216;54.602;18.356;2023-02-28T11:30:30;5.33;;;2.83;;
10341;SDS011;5216;54.602;18.356;2023-02-28T11:32:58;4.17;;;3.30;;
10341;SDS011;5216;54.602;18.356;2023-02-28T11:35:31;4.27;;;3.13;;
10341;SDS011;5216;54.602;18.356;2023-02-28T11:38:04;4.33;;;2.90;;
10341;SDS011;5216;54.602;18.356;2023-02-28T11:40:36;4.03;;;2.50;;
10341;SDS011;5216;54.602;18.356;2023-02-28T11:45:43;3.93;;;3.07;;
10341;SDS011;5216;54.602;18.356;2023-02-28T11:48:16;2.60;;;2.20;;
10341;SDS011;5216;54.602;18.356;2023-02-28T11:56:14;5.43;;;3.00;;
10341;SDS011;5216;54.602;18.356;2023-02-28T12:06:40;9.53;;;2.60;;
10341;SDS011;5216;54.602;18.356;2023-02-28T12:27:56;5.67;;;2.63;;
10341;SDS011;5216;54.602;18.356;2023-02-28T12:30:27;3.70;;;2.50;;
10341;SDS011;5216;54.602;18.356;2023-02-28T12:33:03;3.93;;;2.70;;
10341;SDS011;5216;54.602;18.356;2023-02-28T12:35:34;2.43;;;1.83;;
10341;SDS011;5216;54.602;18.356;2023-02-28T12:38:09;7.60;;;2.57;;
10341;SDS011;5216;54.602;18.356;2023-02-28T12:40:55;4.13;;;2.07;;
10341;SDS011;5216;54.602;18.356;2023-02-28T12:43:24;7.27;;;4.63;;
10341;SDS011;5216;54.602;18.356;2023-02-28T12:45:55;4.97;;;4.20;;
10341;SDS011;5216;54.602;18.356;2023-02-28T12:48:27;5.13;;;3.50;;
10341;SDS011;5216;54.602;18.356;2023-02-28T12:50:55;3.90;;;2.60;;
10341;SDS011;5216;54.602;18.356;2023-02-28T12:53:24;4.13;;;3.43;;
10341;SDS011;5216;54.602;18.356;2023-02-28T12:56:09;2.53;;;2.00;;
10341;SDS011;5216;54.602;18.356;2023-02-28T12:58:38;3.73;;;3.13;;
10341;SDS011;5216;54.602;18.356;2023-02-28T13:09:00;25.20;;;15.57;;
10341;SDS011;5216;54.602;18.356;2023-02-28T13:11:48;10.23;;;6.00;;
10341;SDS011;5216;54.602;18.356;2023-02-28T13:19:44;3.67;;;3.17;;
10341;SDS011;5216;54.602;18.356;2023-02-28T13:22:19;2.80;;;1.97;;
10341;SDS011;5216;54.602;18.356;2023-02-28T13:24:52;3.37;;;2.23;;
10341;SDS011;5216;54.602;18.356;2023-02-28T13:27:24;3.63;;;2.47;;
10341;SDS011;5216;54.602;18.356;2023-02-28T13:29:52;3.10;;;2.20;;
10341;SDS011;5216;54.602;18.356;2023-02-28T13:37:44;5.37;;;3.07;;
10341;SDS011;5216;54.602;18.356;2023-02-28T13:40:27;8.90;;;7.73;;
10341;SDS011;5216;54.602;18.356;2023-02-28T13:42:54;8.10;;;4.53;;
10341;SDS011;5216;54.602;18.356;2023-02-28T13:45:29;3.47;;;2.63;;
10341;SDS011;5216;54.602;18.356;2023-02-28T13:50:24;7.63;;;3.33;;
10341;SDS011;5216;54.602;18.356;2023-02-28T13:53:00;3.23;;;1.90;;
10341;SDS011;5216;54.602;18.356;2023-02-28T13:58:22;2.17;;;1.80;;
10341;SDS011;5216;54.602;18.356;2023-02-28T14:01:11;4.67;;;2.57;;
10341;SDS011;5216;54.602;18.356;2023-02-28T14:11:24;3.67;;;2.17;;
10341;SDS011;5216;54.602;18.356;2023-02-28T14:13:51;4.37;;;2.57;;
10341;SDS011;5216;54.602;18.356;2023-02-28T14:16:21;3.27;;;2.23;;
10341;SDS011;5216;54.602;18.356;2023-02-28T14:21:23;3.43;;;2.00;;
10341;SDS011;5216;54.602;18.356;2023-02-28T14:34:44;10.53;;;6.63;;
10341;SDS011;5216;54.602;18.356;2023-02-28T14:37:24;7.27;;;4.87;;
10341;SDS011;5216;54.602;18.356;2023-02-28T14:39:52;17.23;;;15.47;;
10341;SDS011;5216;54.602;18.356;2023-02-28T14:42:29;6.87;;;6.17;;
10341;SDS011;5216;54.602;18.356;2023-02-28T14:44:57;6.97;;;5.23;;
10341;SDS011;5216;54.602;18.356;2023-02-28T14:47:25;22.83;;;17.73;;
10341;SDS011;5216;54.602;18.356;2023-02-28T14:49:53;15.20;;;13.43;;
10341;SDS011;5216;54.602;18.356;2023-02-28T14:52:21;17.23;;;15.57;;
10341;SDS011;5216;54.602;18.356;2023-02-28T14:54:52;3.37;;;2.50;;
10341;SDS011;5216;54.602;18.356;2023-02-28T14:57:23;4.10;;;2.50;;
10341;SDS011;5216;54.602;18.356;2023-02-28T14:59:58;4.43;;;2.13;;
10341;SDS011;5216;54.602;18.356;2023-02-28T15:02:25;3.43;;;2.40;;
10341;SDS011;5216;54.602;18.356;2023-02-28T15:04:52;3.67;;;2.23;;
10341;SDS011;5216;54.602;18.356;2023-02-28T15:07:19;16.23;;;13.97;;
10341;SDS011;5216;54.602;18.356;2023-02-28T15:09:45;10.50;;;9.40;;
10341;SDS011;5216;54.602;18.356;2023-02-28T15:12:13;6.23;;;5.10;;
10341;SDS011;5216;54.602;18.356;2023-02-28T15:14:42;4.33;;;2.73;;
10341;SDS011;5216;54.602;18.356;2023-02-28T15:17:11;5.47;;;2.93;;
10341;SDS011;5216;54.602;18.356;2023-02-28T15:19:40;4.97;;;2.33;;
10341;SDS011;5216;54.602;18.356;2023-02-28T15:22:11;4.20;;;2.97;;
10341;SDS011;5216;54.602;18.356;2023-02-28T15:24:45;4.13;;;2.50;;
10341;SDS011;5216;54.602;18.356;2023-02-28T15:29:43;3.67;;;2.50;;
10341;SDS011;5216;54.602;18.356;2023-02-28T15:32:26;5.23;;;3.17;;
10341;SDS011;5216;54.602;18.356;2023-02-28T15:34:55;5.77;;;3.00;;
10341;SDS011;5216;54.602;18.356;2023-02-28T15:37:26;4.03;;;3.40;;
10341;SDS011;5216;54.602;18.356;2023-02-28T15:39:53;5.13;;;3.63;;
10341;SDS011;5216;54.602;18.356;2023-02-28T15:42:21;5.57;;;4.20;;
10341;SDS011;5216;54.602;18.356;2023-02-28T15:44:48;6.90;;;4.90;;
10341;SDS011;5216;54.602;18.356;2023-02-28T15:47:32;7.13;;;4.57;;
10341;SDS011;5216;54.602;18.356;2023-02-28T15:50:00;6.00;;;5.40;;
10341;SDS011;5216;54.602;18.356;2023-02-28T15:52:43;10.90;;;4.67;;
10341;SDS011;5216;54.602;18.356;2023-02-28T15:55:11;4.17;;;2.70;;
10341;SDS011;5216;54.602;18.356;2023-02-28T15:57:39;7.27;;;5.47;;
10341;SDS011;5216;54.602;18.356;2023-02-28T16:00:08;6.70;;;3.93;;
10341;SDS011;5216;54.602;18.356;2023-02-28T16:02:37;12.20;;;4.57;;
10341;SDS011;5216;54.602;18.356;2023-02-28T16:07:37;5.10;;;3.97;;
10341;SDS011;5216;54.602;18.356;2023-02-28T16:10:05;5.17;;;3.93;;
10341;SDS011;5216;54.602;18.356;2023-02-28T16:12:33;7.00;;;6.30;;
10341;SDS011;5216;54.602;18.356;2023-02-28T16:15:00;4.97;;;2.60;;
10341;SDS011;5216;54.602;18.356;2023-02-28T16:17:31;7.20;;;5.00;;
10341;SDS011;5216;54.602;18.356;2023-02-28T16:19:59;28.93;;;24.07;;
10341;SDS011;5216;54.602;18.356;2023-02-28T16:22:26;12.33;;;9.83;;
10341;SDS011;5216;54.602;18.356;2023-02-28T16:24:52;12.17;;;9.50;;
10341;SDS011;5216;54.602;18.356;2023-02-28T16:27:27;13.30;;;11.27;;
10341;SDS011;5216;54.602;18.356;2023-02-28T16:29:56;12.87;;;11.47;;
10341;SDS011;5216;54.602;18.356;2023-02-28T16:32:22;20.27;;;16.93;;
10341;SDS011;5216;54.602;18.356;2023-02-28T16:34:49;19.20;;;17.13;;
10341;SDS011;5216;54.602;18.356;2023-02-28T16:37:16;36.33;;;28.60;;
10341;SDS011;5216;54.602;18.356;2023-02-28T16:39:44;9.23;;;7.50;;
10341;SDS011;5216;54.602;18.356;2023-02-28T16:42:32;6.70;;;5.10;;
10341;SDS011;5216;54.602;18.356;2023-02-28T16:44:57;6.27;;;5.03;;
10341;SDS011;5216;54.602;18.356;2023-02-28T16:54:57;9.37;;;7.23;;
10341;SDS011;5216;54.602;18.356;2023-02-28T16:57:26;10.27;;;5.77;;
10341;SDS011;5216;54.602;18.356;2023-02-28T16:59:52;12.57;;;9.60;;
10341;SDS011;5216;54.602;18.356;2023-02-28T17:02:19;11.20;;;8.07;;
10341;SDS011;5216;54.602;18.356;2023-02-28T17:04:47;9.40;;;7.07;;
10341;SDS011;5216;54.602;18.356;2023-02-28T17:07:14;15.70;;;12.97;;
10341;SDS011;5216;54.602;18.356;2023-02-28T17:09:42;12.53;;;9.40;;
10341;SDS011;5216;54.602;18.356;2023-02-28T17:12:11;8.10;;;6.80;;
10341;SDS011;5216;54.602;18.356;2023-02-28T17:14:38;16.37;;;13.90;;
10341;SDS011;5216;54.602;18.356;2023-02-28T17:17:05;12.47;;;8.83;;
10341;SDS011;5216;54.602;18.356;2023-02-28T17:19:32;10.53;;;6.90;;
10341;SDS011;5216;54.602;18.356;2023-02-28T17:22:00;6.13;;;4.30;;
10341;SDS011;5216;54.602;18.356;2023-02-28T17:24:26;6.57;;;5.87;;
10341;SDS011;5216;54.602;18.356;2023-02-28T17:26:56;7.40;;;6.00;;
10341;SDS011;5216;54.602;18.356;2023-02-28T17:29:23;6.03;;;4.87;;
10341;SDS011;5216;54.602;18.356;2023-02-28T17:31:50;5.63;;;4.80;;
10341;SDS011;5216;54.602;18.356;2023-02-28T17:34:17;8.33;;;5.40;;
10341;SDS011;5216;54.602;18.356;2023-02-28T17:36:48;8.57;;;6.90;;
10341;SDS011;5216;54.602;18.356;2023-02-28T17:39:16;13.73;;;8.50;;
10341;SDS011;5216;54.602;18.356;2023-02-28T17:41:51;8.17;;;6.47;;
10341;SDS011;5216;54.602;18.356;2023-02-28T17:44:18;8.73;;;6.70;;
10341;SDS011;5216;54.602;18.356;2023-02-28T17:46:45;10.70;;;7.50;;
10341;SDS011;5216;54.602;18.356;2023-02-28T17:49:12;10.13;;;7.30;;
10341;SDS011;5216;54.602;18.356;2023-02-28T17:51:39;12.23;;;9.17;;
10341;SDS011;5216;54.602;18.356;2023-02-28T17:54:06;13.90;;;10.50;;
10341;SDS011;5216;54.602;18.356;2023-02-28T17:56:35;14.23;;;10.63;;
10341;SDS011;5216;54.602;18.356;2023-02-28T17:59:02;12.50;;;9.73;;
10341;SDS011;5216;54.602;18.356;2023-02-28T18:01:29;12.40;;;8.80;;
10341;SDS011;5216;54.602;18.356;2023-02-28T18:03:55;11.43;;;8.60;;
10341;SDS011;5216;54.602;18.356;2023-02-28T18:06:49;10.00;;;6.87;;